Time;durP1;ratioP1;P1;durP2;ratioP2;P2;SDS_P1;SDS_P2;PMS_P1;PMS_P2;Temp;Humidity;BMP_temperature;BMP_pressure;BME280_temperature;BME280_humidity;BME280_pressure;Samples;Min_cycle;Max_cycle;Signal;HPM_P1;HPM_P2
2021/10/04 00:01:29;;;;;;;13.10;8.02;;;;;;;;;;5120421;28;20325;-85
2021/10/04 00:03:55;;;;;;;13.98;9.23;;;;;;;;;;5120975;28;20060;-85
2021/10/04 00:06:21;;;;;;;11.75;7.93;;;;;;;;;;5102574;28;20020;-85
2021/10/04 00:08:47;;;;;;;12.55;8.38;;;;;;;;;;5120927;28;20026;-85
2021/10/04 00:11:13;;;;;;;15.32;8.27;;;;;;;;;;5120702;28;20045;-85
2021/10/04 00:13:40;;;;;;;17.23;8.80;;;;;;;;;;5120913;28;20026;-85
2021/10/04 00:19:09;;;;;;;17.77;8.75;;;;;;;;;;5120483;28;20043;-85
2021/10/04 00:21:35;;;;;;;13.23;8.70;;;;;;;;;;5120329;28;20405;-86
2021/10/04 00:24:01;;;;;;;12.00;8.20;;;;;;;;;;5102768;28;20028;-85
2021/10/04 00:26:28;;;;;;;12.10;8.60;;;;;;;;;;5120684;28;20019;-85
2021/10/04 00:28:54;;;;;;;15.52;9.15;;;;;;;;;;5120399;28;20019;-85
2021/10/04 00:31:20;;;;;;;12.27;8.48;;;;;;;;;;5120397;28;20056;-84
2021/10/04 00:33:46;;;;;;;15.63;9.65;;;;;;;;;;5120224;28;20469;-84
2021/10/04 00:36:12;;;;;;;13.60;8.07;;;;;;;;;;5120058;28;20340;-85
2021/10/04 00:38:38;;;;;;;17.63;9.65;;;;;;;;;;5120300;28;20298;-84
2021/10/04 00:41:04;;;;;;;18.23;9.48;;;;;;;;;;5120282;28;20305;-85
2021/10/04 00:43:30;;;;;;;14.60;8.77;;;;;;;;;;5101496;28;20489;-84
2021/10/04 00:45:56;;;;;;;18.08;8.50;;;;;;;;;;5119996;28;20024;-85
2021/10/04 00:48:25;;;;;;;21.55;8.38;;;;;;;;;;5101513;28;20020;-83
2021/10/04 00:50:51;;;;;;;16.27;9.35;;;;;;;;;;5101605;28;20065;-83
2021/10/04 00:53:17;;;;;;;14.10;8.93;;;;;;;;;;5100810;28;20118;-82
2021/10/04 00:55:43;;;;;;;11.23;8.73;;;;;;;;;;5119720;28;20024;-83
2021/10/04 00:58:11;;;;;;;12.82;8.82;;;;;;;;;;5119411;28;20028;-82
2021/10/04 01:00:37;;;;;;;14.10;7.43;;;;;;;;;;5119487;28;20076;-83
2021/10/04 01:03:03;;;;;;;15.38;8.43;;;;;;;;;;5119468;28;20317;-82
2021/10/04 01:05:30;;;;;;;14.15;7.72;;;;;;;;;;5119355;28;20122;-82
2021/10/04 01:07:56;;;;;;;12.15;8.30;;;;;;;;;;5119357;28;20068;-82
2021/10/04 01:10:22;;;;;;;13.68;8.45;;;;;;;;;;5100432;28;20028;-83
2021/10/04 01:12:49;;;;;;;14.52;8.05;;;;;;;;;;5119548;28;20102;-83
2021/10/04 01:15:16;;;;;;;14.23;7.85;;;;;;;;;;5119175;28;20055;-83
2021/10/04 01:17:44;;;;;;;11.63;8.00;;;;;;;;;;5119240;28;20103;-83
2021/10/04 01:20:20;;;;;;;14.63;8.05;;;;;;;;;;5119041;28;20030;-83
2021/10/04 01:22:47;;;;;;;18.45;9.07;;;;;;;;;;5119180;28;20031;-83
2021/10/04 01:25:14;;;;;;;13.02;8.18;;;;;;;;;;5119442;28;20305;-84
2021/10/04 01:27:40;;;;;;;11.73;8.07;;;;;;;;;;5118902;28;20024;-84
2021/10/04 01:30:25;;;;;;;13.77;9.90;;;;;;;;;;5118977;28;20030;-84
2021/10/04 01:32:52;;;;;;;14.00;8.13;;;;;;;;;;5118927;28;20020;-84
2021/10/04 01:35:19;;;;;;;13.88;8.13;;;;;;;;;;5100900;28;20024;-82
2021/10/04 01:37:45;;;;;;;16.48;8.52;;;;;;;;;;5118758;28;20034;-82
2021/10/04 01:40:11;;;;;;;12.18;8.73;;;;;;;;;;5118958;28;20073;-80
2021/10/04 01:42:38;;;;;;;14.57;8.27;;;;;;;;;;5118539;28;20024;-82
2021/10/04 01:45:05;;;;;;;17.25;8.93;;;;;;;;;;5100296;28;20020;-82
2021/10/04 01:47:32;;;;;;;12.50;7.78;;;;;;;;;;5118306;28;20035;-81
2021/10/04 01:49:58;;;;;;;16.33;8.52;;;;;;;;;;5100164;28;20340;-82
2021/10/04 01:52:24;;;;;;;12.90;8.48;;;;;;;;;;5118433;28;20154;-81
2021/10/04 01:54:51;;;;;;;13.18;7.97;;;;;;;;;;5118373;28;20102;-81
2021/10/04 01:57:17;;;;;;;10.88;7.22;;;;;;;;;;5118268;28;20051;-81
2021/10/04 02:00:04;;;;;;;10.65;7.40;;;;;;;;;;5117625;28;20365;-81
2021/10/04 02:02:30;;;;;;;14.27;9.07;;;;;;;;;;5118030;28;20015;-84
2021/10/04 02:04:57;;;;;;;12.77;7.63;;;;;;;;;;5117718;28;20081;-82
2021/10/04 02:07:23;;;;;;;11.57;7.13;;;;;;;;;;5118428;28;20314;-82
2021/10/04 02:09:49;;;;;;;15.80;8.32;;;;;;;;;;5118449;28;20019;-82
2021/10/04 02:12:16;;;;;;;11.98;7.40;;;;;;;;;;5100006;28;20023;-82
2021/10/04 02:14:42;;;;;;;11.73;7.20;;;;;;;;;;5118018;28;20028;-82
2021/10/04 02:17:08;;;;;;;18.35;8.18;;;;;;;;;;5118245;28;20019;-83
2021/10/04 02:19:37;;;;;;;11.45;7.55;;;;;;;;;;5118329;28;20028;-84
2021/10/04 02:22:04;;;;;;;17.80;8.30;;;;;;;;;;5118157;28;20405;-84
2021/10/04 02:24:30;;;;;;;14.05;7.88;;;;;;;;;;5118052;28;20345;-82
2021/10/04 02:26:56;;;;;;;15.93;6.80;;;;;;;;;;5117998;28;20064;-82
2021/10/04 02:29:28;;;;;;;13.90;7.40;;;;;;;;;;5100090;28;20062;-84
2021/10/04 02:31:54;;;;;;;11.90;8.10;;;;;;;;;;5118049;28;20031;-83
2021/10/04 02:34:20;;;;;;;11.18;8.25;;;;;;;;;;5117969;28;20023;-84
2021/10/04 02:36:46;;;;;;;14.98;6.78;;;;;;;;;;5117962;28;20031;-84
2021/10/04 02:39:12;;;;;;;15.38;8.07;;;;;;;;;;5118017;28;20397;-83
2021/10/04 02:41:38;;;;;;;10.23;7.20;;;;;;;;;;5117972;28;20313;-83
2021/10/04 02:44:04;;;;;;;13.30;6.72;;;;;;;;;;5117994;28;20349;-84
2021/10/04 02:49:34;;;;;;;12.00;7.00;;;;;;;;;;5117917;28;20426;-83
2021/10/04 02:52:00;;;;;;;12.93;7.00;;;;;;;;;;5118075;28;20039;-83
2021/10/04 02:54:26;;;;;;;10.50;6.47;;;;;;;;;;5117802;28;20027;-84
2021/10/04 02:56:52;;;;;;;12.70;6.70;;;;;;;;;;5117800;28;20073;-84
2021/10/04 02:59:18;;;;;;;12.02;7.15;;;;;;;;;;5099208;28;20070;-84
2021/10/04 03:01:44;;;;;;;16.83;8.40;;;;;;;;;;5117711;28;20024;-84
2021/10/04 03:04:11;;;;;;;27.50;6.97;;;;;;;;;;5117746;28;20044;-84
2021/10/04 03:06:37;;;;;;;9.60;6.65;;;;;;;;;;5117841;28;20402;-84
2021/10/04 03:09:03;;;;;;;9.35;5.85;;;;;;;;;;5117940;28;20023;-84
2021/10/04 03:11:29;;;;;;;8.50;5.90;;;;;;;;;;5121385;28;20484;-83
2021/10/04 03:13:55;;;;;;;11.25;6.18;;;;;;;;;;5122097;28;20325;-85
2021/10/04 03:19:25;;;;;;;10.32;6.28;;;;;;;;;;5121701;28;20042;-85
2021/10/04 03:21:51;;;;;;;10.23;6.40;;;;;;;;;;5121713;28;20035;-82
2021/10/04 03:24:17;;;;;;;9.50;6.00;;;;;;;;;;5121346;28;20024;-82
2021/10/04 03:26:43;;;;;;;11.40;6.40;;;;;;;;;;5121209;28;20024;-82
2021/10/04 03:29:10;;;;;;;13.50;6.22;;;;;;;;;;5121239;28;20031;-83
2021/10/04 03:31:37;;;;;;;11.07;6.68;;;;;;;;;;5121558;28;20065;-83
2021/10/04 03:34:03;;;;;;;10.73;6.20;;;;;;;;;;5121156;28;20031;-83
2021/10/04 03:36:29;;;;;;;11.88;6.05;;;;;;;;;;5120924;28;20416;-83
2021/10/04 03:38:56;;;;;;;9.10;6.18;;;;;;;;;;5121355;28;20023;-83
2021/10/04 03:41:23;;;;;;;11.30;5.68;;;;;;;;;;5102942;28;20321;-83
2021/10/04 03:43:49;;;;;;;11.43;5.82;;;;;;;;;;5121023;28;20492;-83
2021/10/04 03:46:15;;;;;;;10.32;6.68;;;;;;;;;;5121175;28;20348;-84
2021/10/04 03:48:41;;;;;;;16.30;6.20;;;;;;;;;;5121142;28;20024;-83
2021/10/04 03:51:07;;;;;;;13.27;6.85;;;;;;;;;;5121239;28;20024;-83
2021/10/04 03:53:33;;;;;;;12.00;6.75;;;;;;;;;;5120940;28;20030;-83
2021/10/04 03:55:59;;;;;;;11.20;7.07;;;;;;;;;;5102770;28;20023;-83
2021/10/04 03:58:25;;;;;;;11.65;6.28;;;;;;;;;;5120801;28;20028;-84
2021/10/04 04:00:51;;;;;;;8.45;6.07;;;;;;;;;;5121075;28;20024;-83
2021/10/04 04:03:18;;;;;;;8.18;5.82;;;;;;;;;;5120656;28;20027;-84
2021/10/04 04:05:44;;;;;;;8.75;5.57;;;;;;;;;;5120724;28;20051;-84
2021/10/04 04:08:10;;;;;;;17.60;7.18;;;;;;;;;;5120976;28;20028;-84
2021/10/04 04:10:36;;;;;;;10.48;6.70;;;;;;;;;;5120902;28;20326;-84
2021/10/04 04:13:02;;;;;;;13.98;5.72;;;;;;;;;;5102522;28;20034;-84
2021/10/04 04:15:47;;;;;;;9.23;6.13;;;;;;;;;;5120593;28;20321;-83
2021/10/04 04:18:13;;;;;;;10.13;5.88;;;;;;;;;;5120862;28;20030;-85
2021/10/04 04:20:39;;;;;;;13.20;6.30;;;;;;;;;;5120204;28;20027;-84
2021/10/04 04:23:05;;;;;;;8.20;5.28;;;;;;;;;;5119694;28;20027;-85
2021/10/04 04:25:31;;;;;;;10.63;5.97;;;;;;;;;;5120667;28;20019;-85
2021/10/04 04:27:59;;;;;;;15.38;6.30;;;;;;;;;;5120443;28;20022;-83
2021/10/04 04:30:25;;;;;;;11.75;6.07;;;;;;;;;;5120304;28;20409;-82
2021/10/04 04:32:51;;;;;;;11.82;6.70;;;;;;;;;;5102044;28;20023;-83
2021/10/04 04:35:17;;;;;;;15.32;6.40;;;;;;;;;;5120119;28;20419;-85
2021/10/04 04:37:44;;;;;;;12.48;5.63;;;;;;;;;;5120038;28;20016;-84
2021/10/04 04:40:11;;;;;;;10.98;5.65;;;;;;;;;;5120510;28;20317;-84
2021/10/04 04:42:37;;;;;;;10.38;5.68;;;;;;;;;;5120164;28;20024;-84
2021/10/04 04:45:04;;;;;;;12.18;5.60;;;;;;;;;;5119964;28;20020;-84
2021/10/04 04:47:30;;;;;;;11.95;6.30;;;;;;;;;;5120136;28;20476;-82
2021/10/04 04:49:56;;;;;;;10.88;7.18;;;;;;;;;;5120008;28;20095;-83
2021/10/04 04:52:22;;;;;;;10.30;6.50;;;;;;;;;;5119894;28;20038;-87
2021/10/04 04:54:48;;;;;;;13.48;6.55;;;;;;;;;;5120262;28;20023;-86
2021/10/04 04:57:14;;;;;;;13.10;6.20;;;;;;;;;;5101916;28;20032;-86
2021/10/04 05:20:25;;;;;;;12.65;6.63;;;;;;;;;;5081574;27;20375;-87
2021/10/04 05:22:51;;;;;;;14.35;8.38;;;;;;;;;;5074993;28;20035;-87
2021/10/04 05:25:17;;;;;;;13.57;7.45;;;;;;;;;;5074622;28;20021;-86
2021/10/04 05:27:43;;;;;;;11.20;5.32;;;;;;;;;;5073725;28;20021;-86
2021/10/04 05:30:10;;;;;;;12.73;7.18;;;;;;;;;;5074810;28;20021;-83
2021/10/04 05:32:36;;;;;;;16.30;8.70;;;;;;;;;;5073378;28;20028;-86
2021/10/04 05:35:02;;;;;;;20.85;9.07;;;;;;;;;;5073043;28;20085;-85
2021/10/04 05:37:28;;;;;;;15.70;7.22;;;;;;;;;;5073644;28;20048;-85
2021/10/04 05:40:14;;;;;;;18.17;8.40;;;;;;;;;;5073802;28;20028;-86
2021/10/04 05:42:40;;;;;;;12.82;6.03;;;;;;;;;;5074443;28;20111;-85
2021/10/04 05:45:08;;;;;;;13.02;7.03;;;;;;;;;;5074138;28;20310;-84
2021/10/04 05:47:34;;;;;;;18.52;8.60;;;;;;;;;;5074040;28;20452;-85
2021/10/04 05:50:00;;;;;;;43.83;22.60;;;;;;;;;;5073826;28;20033;-81
2021/10/04 05:52:26;;;;;;;17.13;8.27;;;;;;;;;;5073592;28;20067;-77
2021/10/04 05:54:52;;;;;;;15.25;8.77;;;;;;;;;;5073311;28;20017;-77
2021/10/04 05:57:19;;;;;;;14.02;8.82;;;;;;;;;;5073391;28;20039;-77
2021/10/04 05:59:45;;;;;;;22.50;7.25;;;;;;;;;;5073516;28;20021;-77
2021/10/04 06:02:11;;;;;;;15.15;6.03;;;;;;;;;;5073596;28;20033;-77
2021/10/04 06:04:37;;;;;;;11.88;6.15;;;;;;;;;;5073481;28;20029;-77
2021/10/04 06:07:03;;;;;;;11.05;6.80;;;;;;;;;;5073217;28;20029;-78
2021/10/04 06:09:29;;;;;;;8.80;5.63;;;;;;;;;;5073018;28;20020;-77
2021/10/04 06:11:55;;;;;;;8.88;5.90;;;;;;;;;;5073213;28;20054;-77
2021/10/04 06:14:21;;;;;;;11.15;5.97;;;;;;;;;;5073129;28;20025;-77
2021/10/04 06:16:48;;;;;;;12.02;7.00;;;;;;;;;;5072219;28;20304;-77
2021/10/04 06:19:14;;;;;;;11.98;5.93;;;;;;;;;;5068799;28;20096;-77
2021/10/04 06:21:40;;;;;;;9.57;5.53;;;;;;;;;;5057776;28;20055;-77
2021/10/04 06:24:06;;;;;;;10.25;6.18;;;;;;;;;;5059238;28;20035;-77
2021/10/04 06:26:32;;;;;;;12.63;6.50;;;;;;;;;;5059507;28;20025;-77
2021/10/04 06:28:58;;;;;;;11.15;5.93;;;;;;;;;;5058003;28;20416;-78
2021/10/04 06:31:26;;;;;;;11.23;6.07;;;;;;;;;;5059330;28;20017;-77
2021/10/04 06:33:52;;;;;;;18.17;6.85;;;;;;;;;;5058436;28;20028;-78
2021/10/04 06:36:18;;;;;;;39.05;10.40;;;;;;;;;;5058359;28;20028;-78
2021/10/04 06:38:44;;;;;;;21.40;7.85;;;;;;;;;;5059315;28;20427;-78
2021/10/04 06:41:10;;;;;;;12.60;7.15;;;;;;;;;;5058622;28;20334;-77
2021/10/04 06:43:36;;;;;;;25.95;7.40;;;;;;;;;;5059501;28;20029;-77
2021/10/04 06:46:07;;;;;;;14.48;6.72;;;;;;;;;;5059292;28;20032;-78
2021/10/04 06:48:33;;;;;;;31.90;11.43;;;;;;;;;;5059259;28;20419;-78
2021/10/04 06:50:59;;;;;;;19.15;9.70;;;;;;;;;;5059323;28;20017;-78
2021/10/04 06:53:25;;;;;;;14.30;7.00;;;;;;;;;;5058073;28;20036;-78
2021/10/04 06:55:51;;;;;;;21.60;7.57;;;;;;;;;;5059069;28;20033;-78
2021/10/04 06:58:17;;;;;;;14.35;7.72;;;;;;;;;;5059087;28;20478;-78
2021/10/04 07:00:44;;;;;;;20.20;8.50;;;;;;;;;;5058061;28;20039;-78
2021/10/04 07:03:10;;;;;;;14.98;9.25;;;;;;;;;;5058792;28;20066;-77
2021/10/04 07:05:36;;;;;;;20.02;13.38;;;;;;;;;;5059236;28;20306;-87
2021/10/04 07:08:02;;;;;;;23.60;12.45;;;;;;;;;;5057837;28;20024;-75
2021/10/04 07:10:28;;;;;;;21.20;9.82;;;;;;;;;;5058663;28;20017;-75
2021/10/04 07:12:54;;;;;;;147.13;92.47;;;;;;;;;;5058842;28;20021;-75
2021/10/04 07:15:21;;;;;;;56.90;36.70;;;;;;;;;;5057834;28;20021;-75
2021/10/04 07:17:47;;;;;;;66.63;39.35;;;;;;;;;;5059158;28;20333;-77
2021/10/04 07:20:13;;;;;;;78.60;46.47;;;;;;;;;;5058278;28;20079;-78
2021/10/04 07:22:40;;;;;;;96.50;59.47;;;;;;;;;;5058342;28;20303;-78
2021/10/04 07:25:07;;;;;;;58.60;32.55;;;;;;;;;;5057444;28;20017;-78
2021/10/04 07:27:33;;;;;;;41.10;25.98;;;;;;;;;;5057655;28;20318;-77
2021/10/04 07:30:00;;;;;;;83.22;51.47;;;;;;;;;;5058395;28;20033;-77
2021/10/04 07:32:26;;;;;;;71.65;45.13;;;;;;;;;;5057555;28;20021;-79
2021/10/04 07:34:52;;;;;;;91.50;56.38;;;;;;;;;;5058091;28;20029;-84
2021/10/04 07:37:18;;;;;;;119.22;74.55;;;;;;;;;;5058636;28;20021;-84
2021/10/04 07:39:44;;;;;;;43.75;28.27;;;;;;;;;;5058747;28;20029;-83
2021/10/04 07:42:10;;;;;;;23.40;11.70;;;;;;;;;;5058494;28;20087;-83
2021/10/04 07:44:36;;;;;;;25.75;14.18;;;;;;;;;;5058538;28;20117;-83
2021/10/04 07:47:03;;;;;;;19.25;11.07;;;;;;;;;;5058369;28;20066;-83
2021/10/04 07:49:30;;;;;;;16.10;7.80;;;;;;;;;;5058192;28;20037;-83
2021/10/04 07:52:00;;;;;;;13.80;7.40;;;;;;;;;;5058281;28;20094;-83
2021/10/04 07:54:27;;;;;;;14.02;6.80;;;;;;;;;;5058359;28;20100;-83
2021/10/04 07:56:53;;;;;;;13.52;6.75;;;;;;;;;;5058237;28;20017;-83
2021/10/04 07:59:19;;;;;;;15.25;7.35;;;;;;;;;;5056930;28;20369;-83
2021/10/04 08:01:45;;;;;;;12.35;7.55;;;;;;;;;;5058045;28;20029;-83
2021/10/04 08:04:12;;;;;;;11.88;6.65;;;;;;;;;;5058009;28;20056;-82
2021/10/04 08:06:38;;;;;;;12.65;6.72;;;;;;;;;;5056897;28;20056;-84
2021/10/04 08:09:22;;;;;;;14.75;5.32;;;;;;;;;;5057787;28;20055;-83
2021/10/04 08:11:49;;;;;;;12.13;5.20;;;;;;;;;;5058066;28;20068;-84
2021/10/04 08:14:15;;;;;;;9.48;5.18;;;;;;;;;;5056794;28;20017;-84
2021/10/04 08:16:41;;;;;;;12.60;6.93;;;;;;;;;;5056845;28;20108;-84
2021/10/04 08:19:07;;;;;;;14.93;5.93;;;;;;;;;;5057358;28;20053;-84
2021/10/04 08:21:33;;;;;;;11.55;6.10;;;;;;;;;;5057453;28;20027;-84
2021/10/04 08:24:02;;;;;;;11.32;5.75;;;;;;;;;;5057652;28;20025;-84
2021/10/04 08:26:30;;;;;;;14.77;7.25;;;;;;;;;;5056655;28;20032;-82
2021/10/04 08:28:56;;;;;;;18.08;7.25;;;;;;;;;;5057333;28;20100;-82
2021/10/04 08:31:22;;;;;;;15.65;7.63;;;;;;;;;;5057364;28;20025;-83
2021/10/04 08:33:50;;;;;;;11.65;6.15;;;;;;;;;;5057390;28;20035;-82
2021/10/04 08:36:17;;;;;;;14.95;6.35;;;;;;;;;;5057083;28;20025;-82
2021/10/04 08:38:43;;;;;;;13.23;5.95;;;;;;;;;;5057585;28;20033;-82
2021/10/04 08:41:09;;;;;;;17.92;6.85;;;;;;;;;;5057213;28;20087;-82
2021/10/04 08:43:41;;;;;;;12.95;6.57;;;;;;;;;;5057167;28;20051;-82
2021/10/04 08:46:07;;;;;;;11.57;6.38;;;;;;;;;;5057127;28;20431;-82
2021/10/04 08:48:33;;;;;;;10.60;6.95;;;;;;;;;;5057189;28;20036;-83
2021/10/04 08:50:59;;;;;;;10.35;5.90;;;;;;;;;;5057160;28;20040;-82
2021/10/04 08:53:25;;;;;;;14.13;7.32;;;;;;;;;;5057140;28;20017;-82
2021/10/04 08:55:51;;;;;;;11.70;7.00;;;;;;;;;;5057298;28;20040;-82
2021/10/04 08:58:17;;;;;;;14.40;6.47;;;;;;;;;;5057352;28;20029;-83
2021/10/04 09:00:44;;;;;;;11.88;6.65;;;;;;;;;;5057031;28;20108;-83
2021/10/04 09:03:10;;;;;;;14.85;7.47;;;;;;;;;;5055985;28;20417;-82
2021/10/04 09:05:36;;;;;;;12.18;6.70;;;;;;;;;;5057003;28;20406;-83
2021/10/04 09:08:12;;;;;;;14.45;6.40;;;;;;;;;;5055901;28;20418;-83
2021/10/04 09:10:39;;;;;;;17.58;6.95;;;;;;;;;;5057126;28;20132;-82
2021/10/04 09:13:07;;;;;;;13.15;7.35;;;;;;;;;;5057001;28;20407;-83
2021/10/04 09:15:33;;;;;;;16.90;7.97;;;;;;;;;;5057147;28;20035;-83
2021/10/04 09:18:00;;;;;;;10.88;8.10;;;;;;;;;;5055560;28;20037;-82
2021/10/04 09:20:28;;;;;;;18.77;7.90;;;;;;;;;;5055734;28;20049;-83
2021/10/04 09:22:54;;;;;;;16.55;8.43;;;;;;;;;;5056823;28;20064;-83
2021/10/04 09:25:20;;;;;;;16.08;8.98;;;;;;;;;;5056740;28;20047;-82
2021/10/04 09:27:47;;;;;;;18.55;8.27;;;;;;;;;;5055914;28;20389;-83
2021/10/04 09:30:24;;;;;;;14.98;8.82;;;;;;;;;;5056759;28;20040;-82
2021/10/04 09:32:52;;;;;;;11.68;7.60;;;;;;;;;;5055673;28;20040;-83
2021/10/04 09:35:24;;;;;;;12.98;8.55;;;;;;;;;;5056599;28;20017;-83
2021/10/04 09:37:59;;;;;;;13.88;8.30;;;;;;;;;;5056789;28;20013;-83
2021/10/04 09:40:54;;;;;;;17.45;9.18;;;;;;;;;;5056884;28;20059;-83
2021/10/04 09:43:23;;;;;;;13.70;7.85;;;;;;;;;;5055618;28;20048;-83
2021/10/04 09:46:05;;;;;;;15.75;8.93;;;;;;;;;;5056607;28;20022;-83
2021/10/04 09:48:32;;;;;;;14.38;8.25;;;;;;;;;;5056551;28;20026;-83
2021/10/04 09:51:11;;;;;;;16.63;7.65;;;;;;;;;;5056500;28;20021;-83
2021/10/04 09:53:37;;;;;;;18.08;8.45;;;;;;;;;;5055509;28;20410;-83
2021/10/04 09:56:41;;;;;;;12.43;7.60;;;;;;;;;;5059160;28;20029;-83
2021/10/04 09:59:09;;;;;;;13.82;7.07;;;;;;;;;;5060318;28;20021;-83
2021/10/04 10:01:35;;;;;;;12.10;6.78;;;;;;;;;;5060045;28;20071;-83
2021/10/04 10:04:01;;;;;;;11.60;6.60;;;;;;;;;;5060333;28;20029;-83
2021/10/04 10:06:28;;;;;;;14.05;6.30;;;;;;;;;;5060292;28;20031;-83
2021/10/04 10:08:54;;;;;;;15.32;7.38;;;;;;;;;;5060171;28;20049;-83
2021/10/04 10:11:23;;;;;;;17.65;8.23;;;;;;;;;;5060295;28;20021;-83
2021/10/04 10:13:49;;;;;;;15.50;8.00;;;;;;;;;;5060003;28;20422;-82
2021/10/04 10:16:17;;;;;;;15.48;9.98;;;;;;;;;;5060010;28;20021;-83
2021/10/04 10:18:53;;;;;;;20.73;12.57;;;;;;;;;;5058504;28;20045;-83
2021/10/04 10:21:19;;;;;;;27.90;18.02;;;;;;;;;;5058712;28;20036;-82
2021/10/04 10:23:51;;;;;;;28.67;21.52;;;;;;;;;;5059887;28;20028;-83
2021/10/04 10:26:30;;;;;;;36.47;26.42;;;;;;;;;;5058693;28;20021;-82
2021/10/04 10:29:19;;;;;;;29.92;22.05;;;;;;;;;;5059693;28;20415;-83
2021/10/04 10:31:48;;;;;;;39.67;31.15;;;;;;;;;;5059699;28;20105;-83
2021/10/04 10:34:24;;;;;;;41.15;30.05;;;;;;;;;;5059586;28;20029;-83
2021/10/04 10:37:08;;;;;;;37.35;29.27;;;;;;;;;;5059931;28;20099;-83
2021/10/04 10:39:55;;;;;;;32.55;25.58;;;;;;;;;;5059549;28;20075;-83
2021/10/04 10:42:26;;;;;;;27.75;20.70;;;;;;;;;;5059775;28;20029;-83
2021/10/04 10:44:55;;;;;;;29.20;22.77;;;;;;;;;;5058733;28;20033;-83
2021/10/04 10:47:36;;;;;;;27.50;21.10;;;;;;;;;;5059513;28;20457;-82
2021/10/04 10:50:07;;;;;;;24.25;18.88;;;;;;;;;;5059247;28;20029;-83
2021/10/04 10:52:34;;;;;;;30.20;22.80;;;;;;;;;;5059277;28;20112;-83
2021/10/04 10:55:01;;;;;;;24.80;16.05;;;;;;;;;;5059215;28;20452;-83
2021/10/04 10:57:46;;;;;;;20.48;13.00;;;;;;;;;;5058624;28;20051;-83
2021/10/04 11:00:15;;;;;;;22.83;12.60;;;;;;;;;;5059331;28;20021;-84
2021/10/04 11:02:49;;;;;;;17.55;10.18;;;;;;;;;;5059482;28;20104;-83
2021/10/04 11:05:33;;;;;;;15.88;9.57;;;;;;;;;;5059062;28;20051;-84
2021/10/04 11:07:59;;;;;;;15.50;9.13;;;;;;;;;;5059266;28;20044;-83
2021/10/04 11:10:26;;;;;;;15.20;9.07;;;;;;;;;;5059079;28;20021;-83
2021/10/04 11:13:10;;;;;;;21.42;8.30;;;;;;;;;;5059001;28;20025;-83
2021/10/04 11:15:37;;;;;;;18.35;7.95;;;;;;;;;;5058958;28;20024;-83
2021/10/04 11:18:04;;;;;;;19.02;8.07;;;;;;;;;;5058674;28;20035;-84
2021/10/04 11:20:30;;;;;;;15.57;7.65;;;;;;;;;;5058657;28;20036;-83
2021/10/04 11:23:07;;;;;;;16.25;7.78;;;;;;;;;;5058695;28;20020;-83
2021/10/04 11:25:45;;;;;;;14.45;7.60;;;;;;;;;;5042030;28;20119;-83
2021/10/04 11:28:12;;;;;;;14.38;7.38;;;;;;;;;;5038765;28;20403;-83
2021/10/04 11:30:55;;;;;;;14.45;7.50;;;;;;;;;;5038292;28;20044;-83
2021/10/04 11:33:21;;;;;;;22.92;7.63;;;;;;;;;;5037907;28;20026;-83
2021/10/04 11:36:13;;;;;;;11.70;7.10;;;;;;;;;;5037503;28;20080;-83
2021/10/04 11:38:48;;;;;;;9.55;6.65;;;;;;;;;;5038256;28;20040;-83
2021/10/04 11:41:14;;;;;;;19.35;7.45;;;;;;;;;;5038722;28;20037;-83
2021/10/04 11:43:46;;;;;;;18.60;7.32;;;;;;;;;;5038628;28;20026;-83
2021/10/04 11:46:22;;;;;;;12.52;7.30;;;;;;;;;;5037305;28;20330;-83
2021/10/04 11:48:49;;;;;;;9.70;6.47;;;;;;;;;;5038256;28;20076;-83
2021/10/04 11:51:24;;;;;;;10.88;7.20;;;;;;;;;;5038030;28;20124;-83
2021/10/04 11:53:51;;;;;;;11.52;6.60;;;;;;;;;;5038304;28;20049;-83
2021/10/04 11:56:17;;;;;;;11.18;7.07;;;;;;;;;;5038264;28;20033;-83
2021/10/04 11:58:50;;;;;;;17.58;7.15;;;;;;;;;;5037485;28;20037;-83
2021/10/04 12:01:28;;;;;;;15.85;7.57;;;;;;;;;;5038233;28;20030;-83
2021/10/04 12:04:01;;;;;;;10.02;6.55;;;;;;;;;;5038221;28;20048;-83
2021/10/04 12:06:28;;;;;;;12.18;6.97;;;;;;;;;;5037892;28;20021;-83
2021/10/04 12:08:54;;;;;;;11.18;6.82;;;;;;;;;;5037970;28;20034;-84
2021/10/04 12:11:20;;;;;;;12.25;6.50;;;;;;;;;;5037858;28;20052;-83
2021/10/04 12:13:47;;;;;;;16.23;7.10;;;;;;;;;;5037889;28;20017;-83
2021/10/04 12:16:14;;;;;;;20.55;7.03;;;;;;;;;;5037978;28;20064;-83
2021/10/04 12:18:44;;;;;;;12.15;7.30;;;;;;;;;;5037604;28;20041;-82
2021/10/04 12:21:21;;;;;;;27.20;14.30;;;;;;;;;;5037958;28;20040;-85
2021/10/04 12:24:18;;;;;;;21.95;10.05;;;;;;;;;;5052631;28;20415;-85
2021/10/04 12:26:58;;;;;;;13.25;6.72;;;;;;;;;;5049646;28;20045;-84
2021/10/04 12:29:28;;;;;;;12.27;6.72;;;;;;;;;;5055188;28;20045;-83
2021/10/04 12:31:54;;;;;;;22.63;11.02;;;;;;;;;;5049567;28;20430;-83
2021/10/04 12:34:21;;;;;;;45.03;31.33;;;;;;;;;;5053694;28;20072;-84
2021/10/04 12:36:47;;;;;;;16.73;11.57;;;;;;;;;;5037064;28;20033;-83
2021/10/04 12:39:13;;;;;;;13.38;7.45;;;;;;;;;;5035570;28;20032;-83
2021/10/04 12:41:44;;;;;;;12.90;7.38;;;;;;;;;;5035493;28;20026;-82
2021/10/04 12:44:10;;;;;;;18.02;13.02;;;;;;;;;;5035725;28;20125;-83
2021/10/04 12:46:36;;;;;;;14.70;8.15;;;;;;;;;;5035512;28;20064;-83
2021/10/04 12:49:16;;;;;;;19.92;10.68;;;;;;;;;;5035406;28;20068;-82
2021/10/04 12:51:45;;;;;;;15.60;7.90;;;;;;;;;;5035615;28;20021;-84
2021/10/04 12:54:11;;;;;;;11.50;6.63;;;;;;;;;;5035599;28;20049;-85
2021/10/04 12:56:39;;;;;;;12.80;6.57;;;;;;;;;;5035708;28;20044;-85
2021/10/04 12:59:10;;;;;;;19.08;7.97;;;;;;;;;;5035488;28;20025;-84
2021/10/04 13:01:40;;;;;;;16.67;7.10;;;;;;;;;;5035423;28;20029;-84
2021/10/04 13:04:09;;;;;;;12.77;6.50;;;;;;;;;;5036386;28;20445;-84
2021/10/04 13:06:36;;;;;;;12.10;6.75;;;;;;;;;;5037170;28;20423;-83
2021/10/04 13:09:03;;;;;;;13.80;6.50;;;;;;;;;;5037665;28;20108;-84
2021/10/04 13:11:29;;;;;;;11.68;6.80;;;;;;;;;;5037232;28;20021;-84
2021/10/04 13:13:56;;;;;;;11.00;6.53;;;;;;;;;;5036169;28;20117;-84
2021/10/04 13:16:22;;;;;;;12.70;6.88;;;;;;;;;;5037371;28;20032;-84
2021/10/04 13:18:49;;;;;;;9.73;6.45;;;;;;;;;;5036978;28;20057;-84
2021/10/04 13:21:15;;;;;;;13.52;7.30;;;;;;;;;;5036994;28;20030;-84
2021/10/04 13:23:41;;;;;;;15.70;8.05;;;;;;;;;;5037078;28;20105;-84
2021/10/04 13:29:11;;;;;;;18.50;7.72;;;;;;;;;;5037093;28;20037;-84
2021/10/04 13:31:39;;;;;;;17.92;7.82;;;;;;;;;;5039943;28;20037;-84
2021/10/04 13:34:07;;;;;;;13.18;7.90;;;;;;;;;;5040770;28;20048;-84
2021/10/04 13:36:33;;;;;;;13.45;8.13;;;;;;;;;;5041221;28;20105;-84
2021/10/04 13:38:59;;;;;;;11.80;6.47;;;;;;;;;;5039871;28;20116;-83
2021/10/04 13:41:25;;;;;;;15.70;8.45;;;;;;;;;;5044729;28;20514;-83
2021/10/04 13:43:52;;;;;;;15.00;7.55;;;;;;;;;;5056262;28;20112;-87
2021/10/04 13:46:19;;;;;;;13.45;8.52;;;;;;;;;;5040757;28;20112;-84
2021/10/04 13:48:45;;;;;;;14.63;8.77;;;;;;;;;;5040518;28;20503;-84
2021/10/04 13:51:11;;;;;;;14.88;8.63;;;;;;;;;;5053301;28;20033;-85
2021/10/04 13:53:38;;;;;;;13.82;7.35;;;;;;;;;;5050318;28;20025;-84
2021/10/04 13:56:05;;;;;;;13.95;7.30;;;;;;;;;;5040512;28;20101;-83
2021/10/04 13:58:32;;;;;;;11.00;7.40;;;;;;;;;;5052616;28;20090;-83
2021/10/04 14:00:58;;;;;;;16.08;7.75;;;;;;;;;;5059385;28;20074;-85
2021/10/04 14:03:25;;;;;;;86.57;77.93;;;;;;;;;;5058902;28;20060;-83
2021/10/04 14:05:52;;;;;;;15.15;8.43;;;;;;;;;;5040707;28;20067;-83
2021/10/04 14:08:18;;;;;;;20.98;7.57;;;;;;;;;;5048732;28;20062;-83
2021/10/04 14:16:51;;;;;;;13.40;7.70;;;;;;;;;;5057803;28;20028;-84
2021/10/04 14:19:17;;;;;;;11.40;7.50;;;;;;;;;;5059292;28;20045;-85
2021/10/04 14:21:43;;;;;;;14.20;7.80;;;;;;;;;;5047232;28;20061;-83
2021/10/04 14:24:09;;;;;;;13.32;6.70;;;;;;;;;;5043709;28;20029;-84
2021/10/04 14:26:53;;;;;;;8.43;6.07;;;;;;;;;;5047061;28;20029;-84
2021/10/04 14:29:20;;;;;;;12.13;6.55;;;;;;;;;;5058511;28;20040;-85
2021/10/04 14:31:46;;;;;;;13.10;7.20;;;;;;;;;;5059794;28;20314;-84
2021/10/04 14:34:12;;;;;;;12.73;6.18;;;;;;;;;;5058871;28;20052;-84
2021/10/04 14:36:38;;;;;;;12.95;6.50;;;;;;;;;;5059583;28;20089;-83
2021/10/04 14:39:04;;;;;;;11.48;6.53;;;;;;;;;;5058225;28;20116;-83
2021/10/04 14:41:30;;;;;;;14.50;7.15;;;;;;;;;;5055386;28;20025;-82
2021/10/04 14:43:56;;;;;;;9.88;6.40;;;;;;;;;;5055819;28;20021;-82
2021/10/04 14:46:22;;;;;;;10.65;6.10;;;;;;;;;;5059261;28;20071;-83
2021/10/04 14:48:48;;;;;;;16.08;6.97;;;;;;;;;;5058754;28;20037;-83
2021/10/04 14:51:14;;;;;;;12.50;6.82;;;;;;;;;;5058269;28;20029;-83
2021/10/04 14:53:41;;;;;;;19.08;12.07;;;;;;;;;;5059265;28;20021;-82
2021/10/04 14:56:28;;;;;;;23.83;16.70;;;;;;;;;;5058823;28;20395;-82
2021/10/04 14:58:57;;;;;;;22.77;15.30;;;;;;;;;;5058989;28;20029;-82
2021/10/04 15:01:25;;;;;;;19.52;15.23;;;;;;;;;;5059084;28;20048;-83
2021/10/04 15:03:53;;;;;;;25.67;16.58;;;;;;;;;;5059200;28;20055;-83
2021/10/04 15:06:22;;;;;;;25.58;16.83;;;;;;;;;;5058041;28;20029;-83
2021/10/04 15:08:48;;;;;;;20.60;15.73;;;;;;;;;;5058865;28;20391;-83
2021/10/04 15:11:14;;;;;;;23.85;15.55;;;;;;;;;;5058841;28;20442;-82
2021/10/04 15:13:40;;;;;;;25.50;16.50;;;;;;;;;;5058681;28;20017;-83